createdAt,value
2019-06-20T00:00:48.829Z,300.61
2019-06-20T00:01:48.845Z,301.01
2019-06-20T00:02:48.804Z,301.43
2019-06-20T00:03:49.223Z,302.71
2019-06-20T00:04:48.841Z,301.70
2019-06-20T00:05:48.791Z,303.42
2019-06-20T00:06:48.907Z,303.33
2019-06-20T00:07:48.818Z,302.44
2019-06-20T00:08:49.181Z,302.31
2019-06-20T00:09:52.357Z,303.24
2019-06-20T00:10:48.765Z,303.01
2019-06-20T00:11:48.746Z,303.02
2019-06-20T00:13:00.020Z,304.15
2019-06-20T00:13:49.673Z,303.63
2019-06-20T00:14:48.740Z,303.64
2019-06-20T00:15:48.707Z,303.52
2019-06-20T00:16:48.692Z,304.48
2019-06-20T00:17:48.754Z,304.27
2019-06-20T00:18:48.689Z,305.15
2019-06-20T00:19:48.584Z,304.37
2019-06-20T00:20:48.593Z,303.62
2019-06-20T00:21:48.683Z,303.66
2019-06-20T00:22:48.570Z,303.51
2019-06-20T00:23:48.568Z,306.14
2019-06-20T00:24:48.619Z,303.38
2019-06-20T00:25:48.564Z,306.96
2019-06-20T00:26:48.552Z,304.36
2019-06-20T00:27:48.536Z,303.38
2019-06-20T00:28:48.568Z,304.88
2019-06-20T00:29:48.494Z,303.82
2019-06-20T00:30:48.505Z,304.48
2019-06-20T00:31:48.478Z,306.55
2019-06-20T00:32:48.476Z,300.15
2019-06-20T00:33:48.462Z,301.47
2019-06-20T00:34:48.452Z,302.68
2019-06-20T00:35:48.472Z,302.68
2019-06-20T00:36:51.271Z,299.70
2019-06-20T00:37:48.435Z,302.99
2019-06-20T00:38:48.420Z,297.98
2019-06-20T00:39:48.406Z,301.21
2019-06-20T00:40:48.416Z,300.10
2019-06-20T00:41:48.351Z,296.52
2019-06-20T00:42:48.422Z,304.92
2019-06-20T00:43:48.389Z,303.90
2019-06-20T00:44:48.375Z,302.75
2019-06-20T00:45:48.336Z,303.07
2019-06-20T00:46:48.326Z,305.59
2019-06-20T00:47:48.446Z,302.43
2019-06-20T00:48:48.360Z,303.10
2019-06-20T00:49:48.285Z,302.52
2019-06-20T00:50:48.299Z,303.50
2019-06-20T00:51:48.307Z,303.76
2019-06-20T00:52:49.077Z,304.86
2019-06-20T00:53:48.253Z,303.96
2019-06-20T00:54:48.255Z,305.39
2019-06-20T00:55:48.223Z,303.52
2019-06-20T00:56:48.256Z,304.99
2019-06-20T00:57:48.228Z,303.23
2019-06-20T00:58:48.198Z,304.48
2019-06-20T00:59:48.174Z,305.55
2019-06-20T01:00:48.221Z,304.63
2019-06-20T01:01:48.186Z,304.71
2019-06-20T01:02:48.173Z,304.52
2019-06-20T01:03:57.478Z,304.17
2019-06-20T01:04:57.316Z,304.63
2019-06-20T01:05:57.244Z,305.85
2019-06-20T01:06:56.752Z,308.68
2019-06-20T01:07:57.385Z,302.88
2019-06-20T01:08:58.594Z,304.21
2019-06-20T01:09:57.319Z,305.94
2019-06-20T01:10:57.371Z,304.18
2019-06-20T01:11:57.897Z,306.50
2019-06-20T01:12:55.989Z,305.10
2019-06-20T01:13:57.504Z,303.36
2019-06-20T01:14:57.584Z,307.01
2019-06-20T01:15:57.490Z,305.50
2019-06-20T01:16:48.033Z,305.89
2019-06-20T01:17:48.051Z,305.77
2019-06-20T01:18:47.976Z,304.68
2019-06-20T01:19:47.966Z,306.11
2019-06-20T01:20:47.997Z,304.33
2019-06-20T01:21:57.210Z,303.62
2019-06-20T01:22:47.986Z,303.96
2019-06-20T01:23:47.986Z,308.14
2019-06-20T01:24:47.981Z,305.55
2019-06-20T01:25:47.921Z,303.40
2019-06-20T01:26:47.892Z,309.09
2019-06-20T01:27:47.874Z,305.56
2019-06-20T01:28:47.922Z,305.14
2019-06-20T01:29:47.923Z,303.43
2019-06-20T01:30:47.841Z,302.62
2019-06-20T01:31:47.836Z,307.77
2019-06-20T01:32:47.817Z,305.36
2019-06-20T01:33:47.839Z,307.36
2019-06-20T01:34:47.824Z,304.59
2019-06-20T01:35:47.795Z,306.24
2019-06-20T01:36:47.775Z,304.31
2019-06-20T01:37:47.779Z,306.89
2019-06-20T01:38:47.795Z,304.79
2019-06-20T01:39:47.749Z,304.49
2019-06-20T01:40:47.751Z,305.88
2019-06-20T01:41:47.734Z,304.63
2019-06-20T01:42:47.742Z,306.31
2019-06-20T01:43:50.900Z,308.85
2019-06-20T01:44:47.707Z,306.29
2019-06-20T01:45:47.667Z,305.67
2019-06-20T01:46:47.656Z,307.54
2019-06-20T01:47:47.660Z,306.28
2019-06-20T01:48:47.695Z,306.01
2019-06-20T01:49:47.726Z,312.35
2019-06-20T01:50:47.612Z,305.72
2019-06-20T01:51:47.618Z,309.69
2019-06-20T01:52:47.612Z,305.65
2019-06-20T01:53:47.614Z,306.11
2019-06-20T01:54:47.615Z,312.71
2019-06-20T01:55:47.612Z,309.88
2019-06-20T01:56:47.581Z,306.98
2019-06-20T01:57:47.641Z,306.07
2019-06-20T01:58:47.548Z,306.20
2019-06-20T01:59:47.562Z,306.79
2019-06-20T02:00:47.545Z,305.35
2019-06-20T02:01:47.494Z,307.03
2019-06-20T02:02:47.502Z,309.90
2019-06-20T02:03:47.495Z,309.22
2019-06-20T02:04:47.501Z,304.94
2019-06-20T02:05:47.498Z,306.60
2019-06-20T02:06:47.454Z,304.33
2019-06-20T02:07:47.453Z,305.52
2019-06-20T02:08:47.435Z,306.67
2019-06-20T02:09:47.432Z,305.00
2019-06-20T02:10:47.444Z,305.34
2019-06-20T02:11:47.446Z,310.05
2019-06-20T02:12:47.387Z,305.48
2019-06-20T02:13:47.404Z,305.05
2019-06-20T02:14:47.389Z,305.84
2019-06-20T02:15:47.419Z,309.60
2019-06-20T02:16:47.410Z,309.22
2019-06-20T02:17:47.350Z,305.64
2019-06-20T02:18:47.342Z,309.38
2019-06-20T02:19:47.330Z,306.94
2019-06-20T02:20:47.321Z,306.30
2019-06-20T02:21:47.300Z,305.37
2019-06-20T02:22:47.310Z,307.54
2019-06-20T02:23:47.324Z,305.75
2019-06-20T02:24:47.307Z,305.14
2019-06-20T02:25:47.289Z,310.17
2019-06-20T02:26:47.272Z,303.97
2019-06-20T02:27:47.269Z,306.52
2019-06-20T02:28:47.219Z,306.65
2019-06-20T02:29:47.222Z,306.99
2019-06-20T02:30:47.255Z,308.27
2019-06-20T02:31:47.213Z,304.69
2019-06-20T02:32:47.283Z,306.51
2019-06-20T02:33:47.175Z,304.70
2019-06-20T02:34:47.218Z,310.70
2019-06-20T02:35:47.158Z,304.39
2019-06-20T02:36:47.161Z,305.42
2019-06-20T02:37:47.151Z,305.45
2019-06-20T02:38:47.139Z,304.87
2019-06-20T02:39:47.106Z,308.75
2019-06-20T02:40:47.119Z,305.15
2019-06-20T02:41:47.156Z,304.67
2019-06-20T02:42:47.074Z,307.27
2019-06-20T02:43:47.094Z,306.76
2019-06-20T02:44:47.073Z,306.18
2019-06-20T02:45:47.045Z,304.53
2019-06-20T02:46:47.024Z,305.74
2019-06-20T02:47:47.125Z,306.78
2019-06-20T02:48:47.011Z,305.15
2019-06-20T02:49:47.017Z,305.35
2019-06-20T02:50:47.018Z,304.45
2019-06-20T02:51:47.004Z,307.00
2019-06-20T02:52:46.996Z,307.14
2019-06-20T02:53:46.955Z,306.69
2019-06-20T02:54:46.979Z,308.25
2019-06-20T02:55:46.946Z,305.82
2019-06-20T02:56:47.002Z,306.02
2019-06-20T02:57:46.931Z,312.16
2019-06-20T02:58:46.928Z,307.60
2019-06-20T02:59:46.895Z,307.01
2019-06-20T03:00:46.906Z,306.24
2019-06-20T03:01:46.886Z,305.43
2019-06-20T03:02:46.857Z,307.00
2019-06-20T03:03:46.871Z,308.24
2019-06-20T03:04:46.832Z,307.45
2019-06-20T03:05:46.887Z,307.35
2019-06-20T03:06:46.822Z,307.85
2019-06-20T03:07:46.795Z,306.55
2019-06-20T03:08:46.806Z,306.53
2019-06-20T03:09:46.833Z,306.32
2019-06-20T03:10:46.791Z,305.81
2019-06-20T03:11:46.760Z,307.42
2019-06-20T03:12:46.790Z,307.07
2019-06-20T03:13:46.755Z,307.60
2019-06-20T03:14:46.729Z,307.18
2019-06-20T03:15:49.894Z,306.62
2019-06-20T03:16:46.740Z,308.01
2019-06-20T03:17:46.715Z,305.07
2019-06-20T03:18:46.712Z,309.20
2019-06-20T03:19:46.707Z,306.79
2019-06-20T03:20:46.670Z,307.10
2019-06-20T03:21:46.681Z,306.29
2019-06-20T03:22:46.652Z,306.41
2019-06-20T03:23:46.631Z,307.32
2019-06-20T03:24:46.658Z,305.39
2019-06-20T03:25:46.605Z,306.93
2019-06-20T03:26:46.639Z,305.95
2019-06-20T03:27:46.599Z,307.16
2019-06-20T03:28:46.590Z,306.94
2019-06-20T03:29:46.596Z,305.83
2019-06-20T03:30:46.575Z,307.94
2019-06-20T03:31:46.577Z,306.43
2019-06-20T03:32:46.558Z,306.80
2019-06-20T03:33:46.521Z,307.79
2019-06-20T03:34:46.517Z,308.23
2019-06-20T03:35:46.499Z,308.15
2019-06-20T03:36:46.508Z,306.00
2019-06-20T03:37:50.022Z,305.92
2019-06-20T03:38:46.487Z,306.80
2019-06-20T03:39:46.447Z,305.63
2019-06-20T03:40:46.464Z,305.42
2019-06-20T03:41:46.446Z,305.15
2019-06-20T03:42:46.443Z,305.46
2019-06-20T03:43:46.467Z,305.69
2019-06-20T03:45:01.218Z,306.03
2019-06-20T03:45:47.484Z,305.74
2019-06-20T03:46:46.402Z,311.24
2019-06-20T03:47:46.396Z,306.83
2019-06-20T03:48:46.369Z,305.74
2019-06-20T03:49:46.371Z,305.47
2019-06-20T03:50:46.347Z,305.25
2019-06-20T03:51:46.331Z,304.73
2019-06-20T03:52:46.386Z,303.91
2019-06-20T03:53:46.343Z,304.52
2019-06-20T03:54:47.053Z,304.09
2019-06-20T03:55:46.330Z,305.53
2019-06-20T03:56:46.300Z,305.35
2019-06-20T03:57:46.283Z,304.08
2019-06-20T03:58:46.297Z,305.15
2019-06-20T03:59:46.263Z,304.32
2019-06-20T04:00:46.252Z,304.82
2019-06-20T04:01:49.126Z,305.54
2019-06-20T04:02:46.227Z,306.92
2019-06-20T04:03:46.249Z,306.18
2019-06-20T04:04:46.193Z,305.29
2019-06-20T04:05:46.213Z,304.49
2019-06-20T04:06:46.215Z,306.01
2019-06-20T04:07:46.222Z,304.00
2019-06-20T04:08:46.185Z,304.35
2019-06-20T04:09:55.570Z,304.58
2019-06-20T04:10:46.107Z,304.48
2019-06-20T04:11:46.128Z,305.32
2019-06-20T04:12:46.108Z,304.46
2019-06-20T04:13:46.115Z,305.88
2019-06-20T04:14:48.994Z,305.00
2019-06-20T04:15:46.074Z,304.92
2019-06-20T04:16:46.068Z,305.08
2019-06-20T04:17:46.036Z,305.64
2019-06-20T04:18:46.102Z,305.19
2019-06-20T04:19:46.030Z,304.50
2019-06-20T04:20:46.045Z,304.93
2019-06-20T04:21:46.033Z,304.22
2019-06-20T04:22:46.023Z,305.07
2019-06-20T04:23:46.034Z,304.23
2019-06-20T04:24:45.972Z,305.84
2019-06-20T04:25:45.966Z,303.96
2019-06-20T04:26:45.955Z,304.72
2019-06-20T04:27:45.939Z,303.92
2019-06-20T04:28:45.941Z,303.46
2019-06-20T04:29:45.960Z,304.37
2019-06-20T04:30:45.968Z,303.75
2019-06-20T04:31:45.932Z,303.26
2019-06-20T04:32:45.938Z,303.80
2019-06-20T04:33:45.897Z,303.28
2019-06-20T04:34:45.888Z,303.37
2019-06-20T04:35:45.861Z,303.53
2019-06-20T04:36:48.074Z,303.75
2019-06-20T04:37:45.930Z,302.95
2019-06-20T04:38:45.815Z,303.67
2019-06-20T04:39:45.813Z,303.05
2019-06-20T04:40:45.791Z,303.16
2019-06-20T04:41:45.813Z,302.43
2019-06-20T04:42:45.792Z,303.41
2019-06-20T04:43:45.802Z,303.16
2019-06-20T04:44:45.762Z,303.79
2019-06-20T04:45:45.784Z,304.21
2019-06-20T04:46:45.768Z,304.35
2019-06-20T04:47:45.749Z,304.70
2019-06-20T04:48:45.737Z,305.98
2019-06-20T04:49:45.705Z,303.49
2019-06-20T04:50:45.694Z,304.47
2019-06-20T04:51:45.716Z,302.63
2019-06-20T04:52:45.683Z,304.94
2019-06-20T04:53:45.679Z,305.32
2019-06-20T04:54:45.723Z,305.13
2019-06-20T04:55:45.665Z,304.69
2019-06-20T04:56:45.665Z,305.41
2019-06-20T04:57:45.726Z,306.32
2019-06-20T04:58:45.662Z,305.82
2019-06-20T04:59:45.653Z,306.73
2019-06-20T05:00:45.609Z,306.32
2019-06-20T05:01:45.772Z,306.40
2019-06-20T05:02:45.597Z,305.96
2019-06-20T05:03:45.844Z,304.58
2019-06-20T05:04:46.494Z,305.92
2019-06-20T05:05:45.554Z,305.14
2019-06-20T05:06:45.532Z,305.33
2019-06-20T05:07:45.554Z,303.91
2019-06-20T05:08:45.535Z,303.89
2019-06-20T05:09:45.564Z,302.96
2019-06-20T05:10:45.514Z,302.96
2019-06-20T05:11:45.494Z,302.55
2019-06-20T05:12:45.475Z,303.41
2019-06-20T05:13:45.527Z,303.22
2019-06-20T05:14:45.515Z,303.43
2019-06-20T05:15:52.566Z,300.94
2019-06-20T05:16:46.451Z,304.65
2019-06-20T05:17:45.466Z,301.83
2019-06-20T05:18:45.440Z,302.71
2019-06-20T05:19:45.516Z,302.87
2019-06-20T05:20:45.394Z,304.94
2019-06-20T05:21:45.417Z,303.29
2019-06-20T05:22:45.759Z,303.75
2019-06-20T05:23:45.388Z,302.64
2019-06-20T05:24:45.437Z,303.68
2019-06-20T05:25:45.390Z,303.98
2019-06-20T05:26:45.327Z,303.74
2019-06-20T05:27:45.999Z,302.20
2019-06-20T05:28:45.383Z,302.40
2019-06-20T05:29:45.355Z,303.28
2019-06-20T05:30:45.353Z,301.25
2019-06-20T05:31:45.292Z,302.78
2019-06-20T05:32:45.444Z,301.85
2019-06-20T05:33:45.268Z,302.45
2019-06-20T05:34:45.248Z,301.09
2019-06-20T05:35:45.254Z,301.23
2019-06-20T05:36:45.245Z,301.85
2019-06-20T05:37:45.232Z,302.43
2019-06-20T05:38:45.209Z,303.26
2019-06-20T05:39:45.211Z,303.42
2019-06-20T05:40:45.181Z,302.72
2019-06-20T05:41:45.206Z,303.28
2019-06-20T05:42:45.191Z,303.82
2019-06-20T05:43:45.143Z,303.54
2019-06-20T05:44:45.161Z,303.98
2019-06-20T05:45:48.529Z,304.05
2019-06-20T05:46:45.172Z,304.27
2019-06-20T05:47:55.623Z,304.03
2019-06-20T05:48:45.120Z,304.23
2019-06-20T05:49:45.121Z,306.27
2019-06-20T05:50:45.102Z,305.44
2019-06-20T05:51:45.074Z,304.54
2019-06-20T05:52:45.160Z,304.45
2019-06-20T05:53:54.165Z,305.00
2019-06-20T05:54:45.018Z,303.42
2019-06-20T05:55:45.038Z,303.53
2019-06-20T05:56:44.995Z,304.38
2019-06-20T05:57:45.032Z,304.61
2019-06-20T05:58:45.974Z,305.82
2019-06-20T05:59:45.035Z,304.58
2019-06-20T06:00:45.075Z,304.32
2019-06-20T06:01:44.958Z,305.22
2019-06-20T06:02:54.221Z,305.57
2019-06-20T06:03:44.925Z,305.02
2019-06-20T06:04:44.943Z,304.04
2019-06-20T06:05:44.924Z,304.76
2019-06-20T06:06:44.999Z,305.94
2019-06-20T06:07:44.891Z,304.69
2019-06-20T06:08:44.982Z,305.90
2019-06-20T06:09:45.718Z,305.32
2019-06-20T06:10:44.863Z,304.80
2019-06-20T06:11:44.858Z,305.58
2019-06-20T06:12:46.325Z,305.29
2019-06-20T06:13:44.821Z,305.66
2019-06-20T06:14:44.823Z,306.58
2019-06-20T06:15:44.890Z,306.12
2019-06-20T06:16:44.785Z,308.64
2019-06-20T06:17:44.800Z,309.50
2019-06-20T06:18:44.917Z,308.75
2019-06-20T06:19:44.782Z,308.83
2019-06-20T06:20:45.117Z,308.82
2019-06-20T06:21:44.803Z,309.18
2019-06-20T06:22:44.943Z,310.12
2019-06-20T06:23:44.746Z,311.84
2019-06-20T06:24:44.715Z,308.28
2019-06-20T06:25:44.849Z,306.96
2019-06-20T06:26:44.813Z,308.00
2019-06-20T06:27:44.713Z,311.21
2019-06-20T06:28:44.691Z,311.48
2019-06-20T06:29:44.699Z,309.73
2019-06-20T06:30:44.658Z,308.45
2019-06-20T06:31:44.695Z,305.73
2019-06-20T06:32:44.667Z,309.68
2019-06-20T06:33:44.647Z,306.12
2019-06-20T06:34:44.605Z,304.41
2019-06-20T06:35:44.588Z,305.44
2019-06-20T06:36:44.657Z,306.03
2019-06-20T06:37:44.587Z,303.67
2019-06-20T06:38:44.639Z,303.48
2019-06-20T06:39:44.726Z,306.68
2019-06-20T06:40:44.558Z,301.36
2019-06-20T06:41:44.768Z,305.09
2019-06-20T06:42:44.621Z,304.68
2019-06-20T06:43:44.529Z,303.68
2019-06-20T06:44:44.504Z,303.72
2019-06-20T06:45:44.506Z,303.88
2019-06-20T06:46:53.276Z,303.82
2019-06-20T06:47:45.533Z,305.13
2019-06-20T06:48:44.523Z,305.10
2019-06-20T06:49:45.146Z,303.83
2019-06-20T06:50:44.502Z,305.86
2019-06-20T06:51:44.435Z,304.25
2019-06-20T06:52:44.502Z,307.02
2019-06-20T06:53:44.387Z,303.65
2019-06-20T06:54:44.428Z,305.02
2019-06-20T06:55:44.405Z,304.99
2019-06-20T06:56:44.378Z,303.53
2019-06-20T06:57:44.459Z,304.09
2019-06-20T06:58:44.363Z,306.27
2019-06-20T06:59:44.405Z,306.31
2019-06-20T07:00:44.333Z,308.30
2019-06-20T07:01:44.345Z,305.07
2019-06-20T07:02:44.322Z,306.39
2019-06-20T07:03:44.347Z,304.93
2019-06-20T07:04:44.297Z,304.87
2019-06-20T07:05:44.294Z,305.89
2019-06-20T07:06:45.129Z,311.40
2019-06-20T07:07:44.297Z,304.97
2019-06-20T07:08:44.288Z,309.35
2019-06-20T07:09:44.254Z,308.07
2019-06-20T07:10:44.231Z,307.52
2019-06-20T07:11:44.240Z,311.91
2019-06-20T07:12:44.232Z,307.42
2019-06-20T07:13:44.237Z,309.63
2019-06-20T07:14:44.192Z,307.25
2019-06-20T07:15:44.187Z,310.17
2019-06-20T07:16:59.460Z,306.71
2019-06-20T07:17:45.503Z,307.42
2019-06-20T07:18:44.220Z,306.27
2019-06-20T07:19:44.122Z,312.38
2019-06-20T07:20:44.149Z,308.01
2019-06-20T07:21:44.137Z,307.50
2019-06-20T07:22:44.331Z,303.80
2019-06-20T07:23:44.135Z,307.66
2019-06-20T07:24:44.285Z,308.04
2019-06-20T07:25:44.097Z,306.65
2019-06-20T07:26:44.123Z,307.03
2019-06-20T07:27:44.069Z,308.57
2019-06-20T07:28:44.047Z,308.78
2019-06-20T07:29:44.073Z,307.21
2019-06-20T07:30:44.005Z,306.87
2019-06-20T07:31:44.038Z,306.79
2019-06-20T07:32:43.988Z,308.95
2019-06-20T07:33:44.174Z,308.66
2019-06-20T07:34:44.042Z,307.24
2019-06-20T07:35:44.211Z,307.85
2019-06-20T07:36:43.959Z,307.52
2019-06-20T07:37:43.943Z,307.15
2019-06-20T07:38:44.053Z,308.82
2019-06-20T07:39:43.952Z,306.65
2019-06-20T07:40:43.916Z,307.11
2019-06-20T07:41:45.203Z,307.22
2019-06-20T07:42:43.948Z,307.49
2019-06-20T07:43:43.887Z,305.06
2019-06-20T07:44:43.984Z,306.19
2019-06-20T07:46:01.194Z,309.15
2019-06-20T07:46:44.930Z,305.88
2019-06-20T07:47:43.900Z,306.87
2019-06-20T07:48:44.210Z,307.86
2019-06-20T07:49:44.646Z,305.45
2019-06-20T07:50:43.977Z,308.28
2019-06-20T07:51:43.810Z,305.68
2019-06-20T07:52:57.763Z,307.37
2019-06-20T07:53:44.774Z,307.66
2019-06-20T07:54:43.847Z,308.30
2019-06-20T07:55:43.805Z,306.25
2019-06-20T07:56:43.797Z,308.52
2019-06-20T07:57:43.787Z,307.72
2019-06-20T07:58:43.741Z,306.03
2019-06-20T07:59:43.712Z,306.38
2019-06-20T08:00:43.706Z,306.93
2019-06-20T08:01:43.756Z,306.13
2019-06-20T08:02:43.705Z,306.14
2019-06-20T08:03:45.261Z,305.90
2019-06-20T08:04:43.669Z,306.61
2019-06-20T08:05:43.651Z,305.43
2019-06-20T08:06:43.733Z,305.68
2019-06-20T08:07:43.709Z,303.89
2019-06-20T08:08:43.692Z,306.16
2019-06-20T08:09:45.094Z,304.44
2019-06-20T08:10:43.594Z,305.17
2019-06-20T08:11:43.595Z,305.58
2019-06-20T08:12:43.604Z,306.52
2019-06-20T08:13:43.589Z,303.49
2019-06-20T08:14:43.553Z,304.80
2019-06-20T08:15:43.584Z,303.30
2019-06-20T08:16:43.566Z,304.05
2019-06-20T08:17:43.567Z,304.83
2019-06-20T08:18:43.537Z,302.64
2019-06-20T08:19:43.534Z,303.01
2019-06-20T08:20:43.563Z,305.15
2019-06-20T08:21:44.179Z,305.39
2019-06-20T08:22:43.526Z,305.33
2019-06-20T08:23:43.486Z,304.64
2019-06-20T08:24:43.497Z,304.81
2019-06-20T08:25:43.448Z,301.95
2019-06-20T08:26:43.485Z,305.32
2019-06-20T08:27:43.422Z,304.65
2019-06-20T08:28:43.463Z,303.29
2019-06-20T08:29:43.390Z,303.79
2019-06-20T08:30:43.396Z,303.53
2019-06-20T08:31:43.386Z,304.43
2019-06-20T08:32:43.367Z,305.83
2019-06-20T08:33:43.369Z,306.27
2019-06-20T08:34:43.547Z,302.82
2019-06-20T08:35:43.365Z,305.14
2019-06-20T08:36:43.314Z,304.62
2019-06-20T08:37:43.494Z,302.09
2019-06-20T08:38:43.374Z,303.08
2019-06-20T08:39:43.351Z,301.71
2019-06-20T08:40:43.281Z,301.63
2019-06-20T08:41:43.268Z,301.72
2019-06-20T08:42:43.520Z,302.83
2019-06-20T08:43:43.333Z,299.85
2019-06-20T08:44:43.385Z,302.14
2019-06-20T08:45:43.273Z,302.33
2019-06-20T08:46:43.226Z,301.81
2019-06-20T08:47:43.354Z,301.21
2019-06-20T08:48:43.293Z,301.29
2019-06-20T08:49:43.193Z,301.70
2019-06-20T08:50:43.220Z,302.05
2019-06-20T08:51:43.220Z,303.23
2019-06-20T08:52:43.195Z,302.30
2019-06-20T08:53:43.171Z,300.68
2019-06-20T08:54:43.154Z,300.43
2019-06-20T08:55:43.204Z,301.51
2019-06-20T08:56:43.152Z,299.89
2019-06-20T08:57:43.352Z,301.37
2019-06-20T08:58:43.122Z,301.59
2019-06-20T08:59:43.110Z,301.72
2019-06-20T09:00:43.096Z,301.35
2019-06-20T09:01:43.815Z,301.95
2019-06-20T09:02:43.100Z,302.00
2019-06-20T09:03:43.030Z,300.56
2019-06-20T09:04:43.049Z,301.21
2019-06-20T09:05:43.032Z,301.80
2019-06-20T09:06:43.043Z,301.57
2019-06-20T09:07:43.782Z,300.66
2019-06-20T09:08:43.011Z,299.87
2019-06-20T09:09:43.003Z,300.99
2019-06-20T09:10:43.008Z,301.99
2019-06-20T09:11:42.946Z,301.35
2019-06-20T09:12:42.976Z,300.65
2019-06-20T09:13:43.005Z,300.60
2019-06-20T09:14:42.937Z,300.03
2019-06-20T09:15:42.911Z,300.95
2019-06-20T09:16:42.938Z,299.95
2019-06-20T09:17:42.917Z,299.13
2019-06-20T09:18:43.263Z,298.64
2019-06-20T09:19:42.880Z,299.93
2019-06-20T09:20:42.953Z,298.87
2019-06-20T09:21:43.813Z,300.70
2019-06-20T09:22:42.917Z,300.18
2019-06-20T09:23:43.061Z,301.05
2019-06-20T09:24:42.870Z,300.91
2019-06-20T09:25:42.822Z,301.74
2019-06-20T09:26:42.833Z,299.82
2019-06-20T09:27:42.871Z,300.92
2019-06-20T09:28:42.940Z,301.62
2019-06-20T09:29:42.917Z,300.96
2019-06-20T09:30:42.820Z,301.62
2019-06-20T09:31:42.873Z,301.38
2019-06-20T09:32:42.841Z,301.39
2019-06-20T09:33:42.750Z,300.28
2019-06-20T09:34:42.813Z,300.92
2019-06-20T09:35:42.699Z,300.38
2019-06-20T09:36:42.908Z,300.50
2019-06-20T09:37:43.000Z,300.96
2019-06-20T09:38:43.453Z,300.93
2019-06-20T09:39:42.665Z,301.61
2019-06-20T09:40:42.668Z,303.02
2019-06-20T09:41:42.770Z,300.84
2019-06-20T09:42:43.147Z,301.20
2019-06-20T09:43:42.755Z,303.03
2019-06-20T09:44:42.679Z,301.48
2019-06-20T09:45:42.604Z,302.04
2019-06-20T09:46:42.861Z,301.89
2019-06-20T09:47:42.783Z,301.30
2019-06-20T09:48:42.899Z,302.85
2019-06-20T09:49:42.682Z,304.13
2019-06-20T09:50:42.951Z,302.52
2019-06-20T09:51:42.876Z,300.71
2019-06-20T09:52:43.207Z,300.98
2019-06-20T09:53:42.970Z,301.69
2019-06-20T09:54:42.587Z,302.72
2019-06-20T09:55:42.515Z,301.03
2019-06-20T09:56:42.822Z,302.58
2019-06-20T09:57:54.043Z,301.83
2019-06-20T09:58:42.489Z,301.20
2019-06-20T10:00:02.713Z,301.58
2019-06-20T10:00:43.500Z,301.52
2019-06-20T10:03:34.090Z,301.94
2019-06-20T10:07:13.944Z,301.48
2019-06-20T10:08:22.077Z,300.87
2019-06-20T10:12:06.180Z,302.40
2019-06-20T10:18:01.012Z,300.50
2019-06-20T10:19:00.852Z,302.03
2019-06-20T10:20:00.901Z,302.96
2019-06-20T10:21:00.859Z,301.49
2019-06-20T10:22:01.208Z,301.63
2019-06-20T10:23:00.739Z,301.61
2019-06-20T10:24:00.682Z,303.16
2019-06-20T10:25:00.688Z,302.47
2019-06-20T10:26:00.723Z,301.10
2019-06-20T10:27:00.717Z,302.15
2019-06-20T10:28:01.238Z,299.90
2019-06-20T10:29:00.689Z,299.28
2019-06-20T10:30:13.540Z,300.70
2019-06-20T10:31:01.800Z,301.83
2019-06-20T10:32:00.647Z,301.07
2019-06-20T10:33:00.638Z,301.48
2019-06-20T10:34:00.618Z,298.67
2019-06-20T10:35:00.955Z,300.80
2019-06-20T10:36:00.611Z,299.82
2019-06-20T10:37:00.617Z,301.48
2019-06-20T10:38:00.754Z,300.25
2019-06-20T10:39:00.598Z,300.79
2019-06-20T10:40:00.593Z,301.95
2019-06-20T10:41:00.566Z,297.41
2019-06-20T10:42:00.683Z,298.75
2019-06-20T10:43:00.548Z,301.26
2019-06-20T10:44:00.501Z,300.16
2019-06-20T10:45:00.530Z,300.90
2019-06-20T10:46:00.488Z,297.98
2019-06-20T10:47:00.478Z,298.59
2019-06-20T10:48:00.442Z,299.07
2019-06-20T10:49:00.588Z,299.67
2019-06-20T10:50:00.471Z,298.21
2019-06-20T10:51:00.412Z,298.93
2019-06-20T10:52:00.592Z,299.84
2019-06-20T10:53:00.442Z,300.98
2019-06-20T10:54:00.396Z,298.33
2019-06-20T10:55:00.560Z,299.35
2019-06-20T10:56:00.370Z,300.36
2019-06-20T10:57:00.558Z,298.43
2019-06-20T10:58:00.404Z,299.79
2019-06-20T10:59:00.326Z,300.15
2019-06-20T11:00:00.307Z,299.69
2019-06-20T11:01:00.370Z,300.86
2019-06-20T11:02:00.657Z,300.26
2019-06-20T11:03:00.409Z,300.77
2019-06-20T11:04:00.336Z,301.14
2019-06-20T11:05:00.415Z,302.10
2019-06-20T11:06:00.285Z,301.25
2019-06-20T11:07:00.242Z,299.53
2019-06-20T11:08:00.469Z,299.71
2019-06-20T11:09:00.252Z,299.33
2019-06-20T11:10:00.366Z,299.48
2019-06-20T11:11:00.249Z,298.90
2019-06-20T11:12:01.359Z,298.80
2019-06-20T11:13:00.211Z,298.57
2019-06-20T11:14:00.177Z,297.49
2019-06-20T11:15:00.535Z,298.55
2019-06-20T11:16:00.301Z,297.40
2019-06-20T11:17:00.157Z,298.76
2019-06-20T11:18:00.159Z,298.09
2019-06-20T11:19:00.160Z,295.40
2019-06-20T11:20:00.176Z,297.38
2019-06-20T11:21:00.100Z,298.00
2019-06-20T11:22:00.122Z,298.12
2019-06-20T11:23:00.328Z,297.53
2019-06-20T11:24:00.142Z,297.95
2019-06-20T11:25:00.156Z,297.27
2019-06-20T11:26:00.229Z,297.89
2019-06-20T11:27:00.035Z,298.56
2019-06-20T11:27:59.999Z,297.63
2019-06-20T11:29:00.019Z,298.55
2019-06-20T11:30:00.050Z,298.67
2019-06-20T11:31:00.582Z,298.02
2019-06-20T11:31:59.962Z,299.56
2019-06-20T11:32:59.954Z,298.66
2019-06-20T11:33:59.954Z,299.14
2019-06-20T11:34:59.962Z,298.41
2019-06-20T11:35:59.967Z,298.86
2019-06-20T11:36:59.989Z,297.66
2019-06-20T11:37:59.942Z,298.74
2019-06-20T11:38:59.933Z,298.60
2019-06-20T11:39:59.904Z,297.33
2019-06-20T11:40:59.951Z,293.47
2019-06-20T11:41:59.919Z,298.54
2019-06-20T11:42:59.864Z,298.37
2019-06-20T11:43:59.865Z,298.98
2019-06-20T11:44:59.855Z,296.79
2019-06-20T11:45:59.841Z,298.77
2019-06-20T11:46:59.844Z,300.13
2019-06-20T11:47:59.844Z,297.73
2019-06-20T11:48:59.803Z,299.89
2019-06-20T11:49:59.852Z,300.61
2019-06-20T11:50:59.790Z,297.63
2019-06-20T11:51:59.861Z,298.72
2019-06-20T11:52:59.765Z,297.98
2019-06-20T11:53:59.786Z,298.45
2019-06-20T11:54:59.720Z,297.79
2019-06-20T11:55:59.725Z,297.67
2019-06-20T11:56:59.761Z,295.48
2019-06-20T11:57:59.730Z,297.02
2019-06-20T11:58:59.685Z,297.03
2019-06-20T11:59:59.679Z,296.24
2019-06-20T12:01:03.943Z,296.87
2019-06-20T12:02:00.024Z,297.45
2019-06-20T12:02:59.709Z,298.35
2019-06-20T12:03:59.653Z,297.97
2019-06-20T12:04:59.652Z,298.77
2019-06-20T12:05:59.658Z,298.72
2019-06-20T12:07:00.528Z,296.33
2019-06-20T12:07:59.653Z,295.96
2019-06-20T12:08:59.595Z,295.71
2019-06-20T12:09:59.733Z,297.22
2019-06-20T12:10:59.575Z,296.33
2019-06-20T12:11:59.568Z,296.81
2019-06-20T12:12:59.581Z,297.38
2019-06-20T12:13:59.562Z,296.71
2019-06-20T12:14:59.511Z,297.68
2019-06-20T12:15:59.585Z,298.28
2019-06-20T12:16:59.507Z,297.40
2019-06-20T12:17:59.534Z,297.92
2019-06-20T12:19:00.028Z,296.73
2019-06-20T12:19:59.494Z,295.23
2019-06-20T12:20:59.489Z,297.03
2019-06-20T12:21:59.612Z,298.43
2019-06-20T12:22:59.472Z,299.87
2019-06-20T12:23:59.792Z,295.91
2019-06-20T12:24:59.465Z,299.33
2019-06-20T12:25:59.802Z,298.72
2019-06-20T12:26:59.516Z,299.26
2019-06-20T12:27:59.437Z,302.54
2019-06-20T12:28:59.423Z,296.46
2019-06-20T12:29:59.418Z,301.11
2019-06-20T12:30:59.357Z,298.75
2019-06-20T12:31:59.448Z,299.47
2019-06-20T12:32:59.575Z,298.17
2019-06-20T12:33:59.832Z,300.63
2019-06-20T12:34:59.605Z,298.09
2019-06-20T12:35:59.351Z,297.80
2019-06-20T12:36:59.327Z,294.14
2019-06-20T12:37:59.309Z,295.46
2019-06-20T12:38:59.524Z,295.90
2019-06-20T12:40:00.243Z,291.52
2019-06-20T12:40:59.296Z,292.48